Time;durP1;ratioP1;P1;durP2;ratioP2;P2;SDS_P1;SDS_P2;PMS_P1;PMS_P2;Temp;Humidity;BMP_temperature;BMP_pressure;BME280_temperature;BME280_humidity;BME280_pressure;Samples;Min_cycle;Max_cycle;Signal;HPM_P1;HPM_P2
2023/06/06 00:00:09;;;;;;;10.50;4.50;;;;;;;9.88;100.00;101732.02;107092;1279;59103;-83
2023/06/06 00:02:43;;;;;;;95.70;32.00;;;;;;;9.86;100.00;101733.29;107122;1280;59006;-84
2023/06/06 00:05:20;;;;;;;39.40;12.30;;;;;;;9.82;100.00;101732.64;107462;1279;74350;-83
2023/06/06 00:07:46;;;;;;;70.90;22.10;;;;;;;9.74;100.00;101731.70;107485;1280;73509;-83
2023/06/06 00:10:14;;;;;;;32.40;10.70;;;;;;;9.70;100.00;101740.27;107477;1279;59198;-83
2023/06/06 00:12:52;;;;;;;29.50;10.20;;;;;;;9.69;100.00;101737.17;107439;1279;60697;-83
2023/06/06 00:15:19;;;;;;;109.40;31.50;;;;;;;9.68;100.00;101739.41;107429;1280;60324;-83
2023/06/06 00:17:45;;;;;;;112.60;33.40;;;;;;;9.68;100.00;101737.83;107518;1279;74799;-83
2023/06/06 00:20:12;;;;;;;35.80;10.80;;;;;;;9.60;100.00;101736.30;107243;1279;59084;-83
2023/06/06 00:22:39;;;;;;;98.30;31.60;;;;;;;9.52;100.00;101733.91;107478;1279;71684;-83
2023/06/06 00:25:06;;;;;;;114.20;35.90;;;;;;;9.52;100.00;101735.98;107435;1280;62022;-82
2023/06/06 00:27:35;;;;;;;76.10;25.20;;;;;;;9.51;100.00;101738.23;107449;1279;61243;-82
2023/06/06 00:30:03;;;;;;;117.00;40.50;;;;;;;9.50;100.00;101742.05;107439;1279;75352;-83
2023/06/06 00:32:28;;;;;;;84.40;29.50;;;;;;;9.43;100.00;101743.87;107462;1280;73257;-83
2023/06/06 00:34:54;;;;;;;43.80;15.40;;;;;;;9.40;100.00;101744.01;107450;1279;59480;-83
2023/06/06 00:37:20;;;;;;;16.50;7.20;;;;;;;9.37;100.00;101746.56;107457;1280;59308;-84
2023/06/06 00:39:45;;;;;;;16.90;5.50;;;;;;;9.33;100.00;101749.48;107309;1279;59051;-83
2023/06/06 00:42:11;;;;;;;18.50;5.80;;;;;;;9.30;100.00;101746.64;107481;1279;59138;-83
2023/06/06 00:44:36;;;;;;;16.20;6.80;;;;;;;9.29;100.00;101748.27;107502;1279;59001;-82
2023/06/06 00:47:02;;;;;;;29.00;13.40;;;;;;;9.28;100.00;101749.56;107455;1279;59137;-83
2023/06/06 00:49:28;;;;;;;14.40;5.50;;;;;;;9.29;100.00;101747.77;107276;1279;59288;-83
2023/06/06 00:51:54;;;;;;;38.50;16.80;;;;;;;9.32;100.00;101746.79;107049;1280;59337;-84
2023/06/06 00:54:21;;;;;;;34.20;16.30;;;;;;;9.34;100.00;101749.16;107281;1285;59176;-84
2023/06/06 00:56:50;;;;;;;42.30;20.20;;;;;;;9.34;100.00;101752.19;107430;1280;58953;-83
2023/06/06 00:59:16;;;;;;;14.10;5.50;;;;;;;9.34;100.00;101752.61;107451;1280;61928;-83
2023/06/06 01:01:43;;;;;;;30.20;15.20;;;;;;;9.32;100.00;101751.56;106967;1285;59154;-83
2023/06/06 01:04:10;;;;;;;14.10;7.00;;;;;;;9.30;100.00;101753.10;107494;1279;59073;-83
2023/06/06 01:06:39;;;;;;;25.50;12.90;;;;;;;9.27;100.00;101757.39;107510;1279;59154;-83
2023/06/06 01:09:10;;;;;;;13.70;5.80;;;;;;;9.23;100.00;101762.94;107440;1279;73141;-83
2023/06/06 01:11:59;;;;;;;17.90;8.60;;;;;;;9.18;100.00;101765.94;107440;1280;61795;-83
2023/06/06 01:14:41;;;;;;;17.90;9.30;;;;;;;9.14;100.00;101768.81;107499;1280;61040;-83
2023/06/06 01:17:09;;;;;;;26.10;11.40;;;;;;;9.11;100.00;101771.31;107500;1279;75373;-83
2023/06/06 01:19:37;;;;;;;14.20;6.80;;;;;;;9.07;100.00;101772.44;107308;1280;74193;-83
2023/06/06 01:22:04;;;;;;;66.20;32.50;;;;;;;9.07;100.00;101771.79;107435;1280;72460;-83
2023/06/06 01:24:30;;;;;;;51.30;21.30;;;;;;;9.07;100.00;101774.05;107087;1279;60866;-83
2023/06/06 01:26:56;;;;;;;12.70;5.70;;;;;;;9.06;100.00;101777.21;106922;1279;59386;-83
2023/06/06 01:29:22;;;;;;;259.00;93.20;;;;;;;9.07;100.00;101777.39;107119;1279;59016;-83
2023/06/06 01:32:30;;;;;;;65.70;21.20;;;;;;;9.05;100.00;101776.09;107487;1279;59486;-83
2023/06/06 01:35:02;;;;;;;53.50;18.60;;;;;;;8.99;100.00;101773.38;106509;1288;72439;-82
2023/06/06 01:37:34;;;;;;;94.20;31.10;;;;;;;8.96;100.00;101774.27;106310;1288;60827;-82
2023/06/06 01:40:04;;;;;;;182.20;54.70;;;;;;;8.95;100.00;101774.00;106532;1289;59942;-82
2023/06/06 01:42:33;;;;;;;22.80;8.00;;;;;;;8.97;100.00;101784.14;106508;1289;75430;-83
2023/06/06 01:45:00;;;;;;;608.40;205.30;;;;;;;9.03;100.00;101786.45;106570;1287;74361;-82
2023/06/06 01:47:27;;;;;;;170.50;48.80;;;;;;;9.08;100.00;101790.87;106531;1287;72592;-82
2023/06/06 01:49:53;;;;;;;194.90;60.90;;;;;;;9.13;100.00;101791.53;106521;1288;61259;-83
2023/06/06 01:52:21;;;;;;;47.40;15.10;;;;;;;9.14;100.00;101793.18;106608;1288;59030;-84
2023/06/06 01:54:47;;;;;;;45.70;16.40;;;;;;;9.15;100.00;101796.12;106313;1290;74881;-84
2023/06/06 01:57:12;;;;;;;18.50;7.60;;;;;;;9.17;100.00;101794.15;106365;1290;59051;-84
2023/06/06 01:59:38;;;;;;;11.20;5.00;;;;;;;9.14;100.00;101796.46;106256;1289;59277;-84
2023/06/06 02:02:04;;;;;;;12.30;4.60;;;;;;;9.14;100.00;101795.21;106322;1289;59884;-85
2023/06/06 02:04:30;;;;;;;28.20;12.80;;;;;;;9.16;100.00;101797.76;106339;1289;59049;-86
2023/06/06 02:06:56;;;;;;;21.40;9.10;;;;;;;9.22;100.00;101797.63;106368;1291;59111;-84
2023/06/06 02:09:21;;;;;;;19.00;8.20;;;;;;;9.29;100.00;101796.89;106314;1290;72681;-85
2023/06/06 02:11:47;;;;;;;17.80;7.30;;;;;;;9.39;100.00;101796.77;106391;1283;59145;-85
2023/06/06 02:14:15;;;;;;;13.70;5.00;;;;;;;9.48;100.00;101795.64;107019;1283;59287;-83
2023/06/06 02:16:41;;;;;;;12.40;6.40;;;;;;;9.58;100.00;101802.52;106802;1282;59475;-84
2023/06/06 02:19:07;;;;;;;11.40;5.10;;;;;;;9.76;100.00;101800.34;106780;1286;59077;-84
2023/06/06 02:21:32;;;;;;;8.70;4.70;;;;;;;9.87;100.00;101805.52;106713;1286;59147;-85
2023/06/06 02:23:58;;;;;;;9.50;4.60;;;;;;;9.95;100.00;101804.96;106682;1286;59132;-85
2023/06/06 02:26:23;;;;;;;9.60;4.90;;;;;;;10.04;100.00;101807.52;106900;1285;59174;-85
2023/06/06 02:28:49;;;;;;;9.40;5.20;;;;;;;10.13;100.00;101810.52;106883;1286;72577;-82
2023/06/06 02:31:16;;;;;;;11.20;4.80;;;;;;;10.26;100.00;101810.45;106829;1284;59069;-83
2023/06/06 02:33:42;;;;;;;13.30;5.80;;;;;;;10.42;100.00;101808.91;106503;1284;61786;-83
2023/06/06 02:36:08;;;;;;;15.20;6.70;;;;;;;10.55;100.00;101808.02;106913;1284;59167;-81
2023/06/06 02:38:33;;;;;;;11.20;5.70;;;;;;;10.67;100.00;101807.69;106918;1286;59141;-82
2023/06/06 02:40:59;;;;;;;16.40;6.30;;;;;;;10.85;100.00;101810.14;106674;1286;59495;-82
2023/06/06 02:43:24;;;;;;;16.70;5.60;;;;;;;11.06;100.00;101816.37;106885;1285;59142;-83
2023/06/06 02:45:50;;;;;;;11.20;5.70;;;;;;;11.31;100.00;101818.13;106748;1285;60281;-83
2023/06/06 02:48:16;;;;;;;16.80;6.20;;;;;;;11.71;100.00;101814.34;106876;1285;59056;-83
2023/06/06 02:50:42;;;;;;;13.70;6.10;;;;;;;12.17;100.00;101812.89;106844;1279;59112;-84
2023/06/06 02:53:07;;;;;;;14.60;5.50;;;;;;;12.62;100.00;101819.95;107449;1279;59091;-84
2023/06/06 02:55:33;;;;;;;14.00;5.50;;;;;;;12.95;100.00;101821.12;107516;1279;59293;-84
2023/06/06 02:57:58;;;;;;;15.40;5.40;;;;;;;13.15;100.00;101815.31;107572;1279;59077;-84
2023/06/06 03:00:27;;;;;;;17.40;5.90;;;;;;;13.31;100.00;101815.70;107213;1279;74311;-84
2023/06/06 03:02:52;;;;;;;20.20;5.80;;;;;;;13.46;100.00;101816.51;107470;1279;73369;-84
2023/06/06 03:05:18;;;;;;;22.90;6.10;;;;;;;13.58;100.00;101818.41;107186;1279;59095;-84
2023/06/06 03:07:43;;;;;;;15.90;6.30;;;;;;;13.72;100.00;101816.38;107087;1279;59145;-84
2023/06/06 03:10:09;;;;;;;16.30;6.40;;;;;;;13.92;100.00;101818.77;107466;1279;59063;-84
2023/06/06 03:12:35;;;;;;;16.80;5.60;;;;;;;14.23;100.00;101824.23;107119;1279;59133;-84
2023/06/06 03:15:00;;;;;;;17.20;6.40;;;;;;;14.66;100.00;101827.73;107445;1279;61907;-85
2023/06/06 03:17:26;;;;;;;16.00;5.60;;;;;;;15.27;100.00;101824.16;107490;1279;59140;-86
2023/06/06 03:19:52;;;;;;;13.00;5.40;;;;;;;16.04;100.00;101818.90;107492;1279;59179;-85
2023/06/06 03:22:17;;;;;;;15.70;5.10;;;;;;;16.54;100.00;101815.63;107054;1279;59501;-84
2023/06/06 03:24:45;;;;;;;11.00;4.90;;;;;;;16.87;100.00;101820.85;107108;1283;59094;-84
2023/06/06 03:27:11;;;;;;;14.50;4.80;;;;;;;17.10;100.00;101823.20;107467;1279;58939;-86
2023/06/06 03:29:37;;;;;;;41.60;17.30;;;;;;;17.21;100.00;101825.42;107471;1279;59083;-85
2023/06/06 03:32:02;;;;;;;24.70;10.60;;;;;;;17.27;100.00;101824.27;107525;1279;59039;-85
2023/06/06 03:34:28;;;;;;;17.70;6.70;;;;;;;17.46;100.00;101814.98;107462;1279;73377;-84
2023/06/06 03:36:54;;;;;;;16.40;5.90;;;;;;;17.73;100.00;101813.92;107477;1279;59036;-85
2023/06/06 03:39:19;;;;;;;13.40;5.10;;;;;;;18.10;100.00;101815.54;106996;1283;59195;-85
2023/06/06 03:41:45;;;;;;;13.60;5.60;;;;;;;18.44;100.00;101816.66;107008;1283;59325;-85
2023/06/06 03:44:14;;;;;;;10.20;4.50;;;;;;;18.80;100.00;101808.44;107126;1283;59181;-86
2023/06/06 03:46:39;;;;;;;18.10;5.70;;;;;;;18.96;100.00;101808.00;106997;1283;59044;-86
2023/06/06 03:49:05;;;;;;;9.30;4.80;;;;;;;18.95;100.00;101814.34;107140;1282;59020;-86
2023/06/06 03:51:31;;;;;;;12.80;4.60;;;;;;;18.88;100.00;101812.38;107127;1282;59514;-86
2023/06/06 03:53:56;;;;;;;15.50;5.20;;;;;;;18.72;100.00;101812.94;107184;1282;59309;-86
2023/06/06 03:56:23;;;;;;;24.90;9.10;;;;;;;18.62;100.00;101818.45;107014;1283;72377;-85
2023/06/06 03:58:49;;;;;;;17.70;5.80;;;;;;;18.91;100.00;101818.90;107151;1282;60526;-84
2023/06/06 04:01:21;;;;;;;12.30;3.90;;;;;;;19.11;100.00;101816.77;107171;1282;59005;-86
2023/06/06 04:03:47;;;;;;;29.00;8.30;;;;;;;19.23;100.00;101814.36;106695;1285;75554;-85
2023/06/06 04:06:14;;;;;;;13.30;4.60;;;;;;;19.41;99.36;101819.66;106746;1285;59046;-86
2023/06/06 04:08:40;;;;;;;18.70;4.80;;;;;;;19.58;97.85;101822.98;106726;1285;73807;-87
2023/06/06 04:11:06;;;;;;;13.40;5.40;;;;;;;19.84;93.23;101825.17;106636;1286;59227;-87
2023/06/06 04:13:31;;;;;;;12.70;5.20;;;;;;;19.85;87.63;101823.67;107065;1283;59078;-87
2023/06/06 04:15:57;;;;;;;20.20;5.20;;;;;;;20.02;89.64;101822.14;106718;1282;59882;-86
2023/06/06 04:18:22;;;;;;;12.00;4.10;;;;;;;20.79;89.86;101818.64;107051;1282;59275;-86
2023/06/06 04:20:48;;;;;;;4.80;2.70;;;;;;;21.57;84.73;101810.70;106960;1282;60986;-86
2023/06/06 04:23:16;;;;;;;16.30;5.90;;;;;;;21.94;80.77;101813.02;107026;1282;59240;-87
2023/06/06 04:25:42;;;;;;;17.60;5.80;;;;;;;22.57;77.58;101811.92;107002;1283;74480;-87
2023/06/06 04:28:08;;;;;;;7.10;3.40;;;;;;;23.23;72.19;101814.31;106781;1282;59197;-86
2023/06/06 04:30:34;;;;;;;7.20;3.70;;;;;;;23.40;68.25;101809.83;106789;1285;59189;-86
2023/06/06 04:33:00;;;;;;;10.30;4.90;;;;;;;23.69;70.29;101810.61;107006;1282;59016;-87
2023/06/06 04:35:26;;;;;;;7.40;3.40;;;;;;;23.83;67.49;101811.57;106859;1283;59527;-86
2023/06/06 04:37:53;;;;;;;13.80;3.80;;;;;;;23.86;66.96;101813.82;106967;1282;59087;-87
2023/06/06 04:40:21;;;;;;;7.60;3.20;;;;;;;23.60;64.89;101806.81;107046;1282;59146;-84
2023/06/06 04:42:47;;;;;;;14.60;3.90;;;;;;;23.85;67.29;101810.13;107363;1279;59058;-84
2023/06/06 04:45:13;;;;;;;7.60;3.60;;;;;;;24.62;63.95;101812.41;107251;1279;58966;-85
2023/06/06 04:47:40;;;;;;;9.10;4.30;;;;;;;25.19;61.46;101807.05;107388;1279;59066;-85
2023/06/06 04:50:07;;;;;;;6.80;3.80;;;;;;;25.25;58.76;101805.95;107408;1279;59010;-86
2023/06/06 04:52:34;;;;;;;12.90;3.60;;;;;;;25.08;58.99;101806.67;106990;1279;59160;-86
2023/06/06 04:55:03;;;;;;;19.20;6.30;;;;;;;25.40;59.49;101798.49;107340;1280;59017;-85
2023/06/06 04:57:29;;;;;;;12.60;4.20;;;;;;;26.32;58.22;101797.51;107277;1279;61376;-86
2023/06/06 04:59:57;;;;;;;18.50;4.20;;;;;;;27.06;55.78;101800.02;107363;1280;59415;-85
2023/06/06 05:02:28;;;;;;;9.10;3.60;;;;;;;27.59;53.54;101805.90;107233;1279;75194;-86
2023/06/06 05:04:58;;;;;;;8.20;3.80;;;;;;;27.60;51.21;101802.63;107334;1280;74280;-85
2023/06/06 05:07:24;;;;;;;8.00;3.10;;;;;;;27.50;50.84;101802.86;107334;1280;72970;-86
2023/06/06 05:09:58;;;;;;;12.90;3.60;;;;;;;27.31;50.19;101806.29;107261;1279;58999;-85
2023/06/06 05:12:32;;;;;;;7.40;3.70;;;;;;;27.04;49.29;101811.56;106952;1283;61968;-86
2023/06/06 05:14:58;;;;;;;10.10;3.30;;;;;;;27.01;49.38;101813.13;106624;1285;75926;-86
2023/06/06 05:17:26;;;;;;;10.70;3.60;;;;;;;27.11;49.06;101813.17;106913;1284;59133;-88
2023/06/06 05:19:51;;;;;;;14.10;6.70;;;;;;;27.91;48.47;101806.61;106953;1286;73496;-86
2023/06/06 05:22:17;;;;;;;11.50;4.40;;;;;;;28.22;46.84;101806.05;106983;1284;59058;-85
2023/06/06 05:24:43;;;;;;;21.90;4.00;;;;;;;28.38;47.20;101805.11;107013;1285;59619;-86
2023/06/06 05:27:08;;;;;;;7.80;3.60;;;;;;;28.93;47.36;101801.49;106831;1285;59094;-86
2023/06/06 05:29:35;;;;;;;17.20;3.70;;;;;;;29.44;45.81;101793.85;106994;1285;59152;-88
2023/06/06 05:32:00;;;;;;;9.40;3.60;;;;;;;29.91;44.76;101792.20;106804;1285;59072;-86
2023/06/06 05:34:26;;;;;;;11.00;3.30;;;;;;;30.51;43.13;101788.48;106749;1285;59036;-86
2023/06/06 05:36:52;;;;;;;11.10;3.30;;;;;;;31.17;43.09;101787.65;107082;1282;59438;-87
2023/06/06 05:39:18;;;;;;;7.80;2.90;;;;;;;31.78;41.19;101787.42;107016;1285;59132;-87
2023/06/06 05:41:51;;;;;;;7.30;3.80;;;;;;;32.10;39.37;101789.39;107107;1282;59331;-86
2023/06/06 05:44:17;;;;;;;7.60;3.80;;;;;;;32.64;39.32;101790.59;106871;1283;60904;-87
2023/06/06 05:46:43;;;;;;;14.10;5.00;;;;;;;33.16;38.23;101791.94;107335;1279;59086;-87
2023/06/06 05:49:09;;;;;;;15.50;8.20;;;;;;;33.69;36.90;101790.10;107188;1279;59117;-84
2023/06/06 05:51:35;;;;;;;12.00;7.70;;;;;;;34.21;35.87;101791.29;107427;1279;59045;-87
2023/06/06 05:54:03;;;;;;;15.80;7.90;;;;;;;34.56;35.02;101790.21;107355;1280;59089;-90
2023/06/06 05:56:28;;;;;;;14.30;7.70;;;;;;;34.93;34.34;101790.92;107282;1279;59056;-87
2023/06/06 05:58:54;;;;;;;10.20;5.40;;;;;;;35.36;32.72;101785.73;107188;1280;59159;-88
2023/06/06 06:01:24;;;;;;;10.90;4.50;;;;;;;35.78;31.89;101782.00;107370;1279;59098;-87
2023/06/06 06:03:52;;;;;;;10.80;4.20;;;;;;;36.19;30.71;101783.14;107388;1280;74364;-85
2023/06/06 06:06:19;;;;;;;8.40;4.20;;;;;;;36.71;29.58;101787.71;107353;1279;73491;-84
2023/06/06 06:08:48;;;;;;;6.90;4.60;;;;;;;37.10;29.08;101783.09;107384;1279;58995;-86
2023/06/06 06:11:27;;;;;;;;;;;;;;;;;;;;;
2023/06/06 06:14:01;;;;;;;8.40;4.90;;;;;;;37.37;28.10;101785.42;106771;1279;73262;-87
2023/06/06 06:16:26;;;;;;;5.90;3.10;;;;;;;37.77;27.15;101786.30;107373;1279;74352;-86
2023/06/06 06:19:27;;;;;;;5.30;3.80;;;;;;;37.89;26.00;101779.25;107107;1279;60387;-84
2023/06/06 06:21:47;;;;;;;6.90;4.50;;;;;;;37.75;25.63;101773.39;107143;1279;59351;-84
2023/06/06 06:24:30;;;;;;;5.80;4.00;;;;;;;37.47;25.41;101771.98;107405;1279;60228;-87
2023/06/06 06:26:56;;;;;;;6.60;3.50;;;;;;;37.59;25.34;101766.50;107474;1279;74435;-86
2023/06/06 06:29:21;;;;;;;7.80;3.40;;;;;;;37.84;25.61;101762.02;107475;1279;59082;-88
2023/06/06 06:31:47;;;;;;;7.10;3.80;;;;;;;38.28;24.85;101764.61;107439;1279;59374;-87
2023/06/06 06:34:12;;;;;;;8.80;4.20;;;;;;;38.39;24.32;101766.42;107479;1279;59255;-87
2023/06/06 06:36:38;;;;;;;6.70;4.30;;;;;;;38.06;23.49;101769.10;107513;1279;59449;-86
2023/06/06 06:39:03;;;;;;;5.10;3.50;;;;;;;38.06;23.82;101767.66;107451;1279;74175;-85
2023/06/06 06:41:29;;;;;;;8.60;4.10;;;;;;;38.20;23.92;101765.69;107093;1279;59106;-86
2023/06/06 06:43:54;;;;;;;6.90;4.40;;;;;;;38.02;23.76;101766.34;107450;1279;59005;-88
2023/06/06 06:46:20;;;;;;;13.20;4.30;;;;;;;38.15;23.72;101764.88;107062;1282;59177;-87
2023/06/06 06:48:46;;;;;;;8.60;4.20;;;;;;;38.25;22.99;101765.61;106954;1282;59057;-86
2023/06/06 06:51:13;;;;;;;5.90;3.50;;;;;;;38.18;23.59;101767.89;106993;1282;72521;-86
2023/06/06 06:53:39;;;;;;;6.20;3.90;;;;;;;38.46;23.69;101763.02;106995;1282;60663;-85
2023/06/06 06:56:05;;;;;;;3.50;2.70;;;;;;;38.84;23.39;101761.33;107001;1282;59132;-87
2023/06/06 06:58:34;;;;;;;6.60;2.90;;;;;;;38.79;21.55;101759.05;107082;1282;59246;-85
2023/06/06 07:01:02;;;;;;;10.50;3.10;;;;;;;38.36;21.98;101764.61;106987;1282;74283;-85
2023/06/06 07:03:28;;;;;;;3.80;2.80;;;;;;;38.29;21.77;101763.95;106994;1282;72373;-85
2023/06/06 07:05:54;;;;;;;4.20;2.90;;;;;;;37.93;21.75;101774.32;106642;1285;59283;-85
2023/06/06 07:08:20;;;;;;;5.70;2.20;;;;;;;38.10;21.74;101773.15;106613;1285;59017;-83
2023/06/06 07:10:46;;;;;;;3.90;2.40;;;;;;;37.75;21.18;101773.05;106686;1285;59020;-83
2023/06/06 07:13:15;;;;;;;3.30;2.40;;;;;;;36.64;21.51;101770.55;106647;1285;59380;-85
2023/06/06 07:15:41;;;;;;;3.50;2.10;;;;;;;36.62;21.80;101768.64;106387;1285;73348;-84
2023/06/06 07:18:06;;;;;;;4.10;2.10;;;;;;;37.48;22.14;101771.48;106905;1282;59066;-84
2023/06/06 07:20:34;;;;;;;4.30;2.60;;;;;;;37.30;21.06;101773.89;106608;1282;59140;-84
2023/06/06 07:23:00;;;;;;;8.70;2.30;;;;;;;36.02;21.91;101774.63;106840;1282;59131;-83
2023/06/06 07:25:25;;;;;;;6.30;2.40;;;;;;;35.45;22.44;101776.36;107062;1282;59249;-85
2023/06/06 07:27:52;;;;;;;5.30;2.00;;;;;;;35.79;22.20;101772.61;106997;1282;59110;-83
2023/06/06 07:30:18;;;;;;;13.60;2.60;;;;;;;35.82;22.10;101774.05;106964;1282;59161;-83
2023/06/06 07:32:46;;;;;;;4.20;1.70;;;;;;;35.46;21.88;101776.45;107053;1282;59163;-83
2023/06/06 07:35:14;;;;;;;6.30;1.50;;;;;;;35.38;22.87;101777.33;107048;1282;59167;-84
2023/06/06 07:37:40;;;;;;;3.50;2.10;;;;;;;36.29;22.26;101780.13;107231;1279;73407;-86
2023/06/06 07:40:11;;;;;;;3.40;2.00;;;;;;;36.28;21.70;101776.37;106795;1279;59101;-85
2023/06/06 07:42:41;;;;;;;4.50;1.80;;;;;;;36.71;21.73;101776.85;107442;1279;61606;-84
2023/06/06 07:45:08;;;;;;;4.00;1.60;;;;;;;37.28;22.02;101776.65;107331;1279;59961;-84
2023/06/06 07:47:37;;;;;;;3.70;1.90;;;;;;;37.56;21.24;101777.36;106796;1279;59463;-83
2023/06/06 07:50:03;;;;;;;2.20;1.70;;;;;;;36.89;21.40;101777.70;107512;1279;73438;-84
2023/06/06 07:52:30;;;;;;;2.40;2.00;;;;;;;37.05;21.83;101770.13;107504;1279;59048;-84
2023/06/06 07:54:58;;;;;;;4.30;1.90;;;;;;;37.48;22.05;101771.11;107453;1279;59932;-85
2023/06/06 07:57:25;;;;;;;4.10;1.70;;;;;;;37.73;21.46;101764.64;107505;1279;60005;-84
2023/06/06 07:59:51;;;;;;;10.90;2.20;;;;;;;38.00;21.32;101763.05;107459;1279;74356;-84
2023/06/06 08:02:16;;;;;;;3.60;1.90;;;;;;;37.84;21.07;101763.39;107058;1282;59489;-83
2023/06/06 08:04:45;;;;;;;11.90;2.40;;;;;;;37.66;21.47;101759.57;107147;1282;59530;-84
2023/06/06 08:07:15;;;;;;;2.00;1.80;;;;;;;36.94;21.27;101766.02;107115;1282;60891;-83
2023/06/06 08:09:43;;;;;;;3.20;2.10;;;;;;;36.67;21.73;101762.54;106778;1283;60064;-83
2023/06/06 08:12:10;;;;;;;7.10;1.90;;;;;;;36.67;22.03;101764.60;106753;1283;75581;-83
2023/06/06 08:14:38;;;;;;;2.50;1.70;;;;;;;36.23;21.55;101759.48;107029;1283;73499;-87
2023/06/06 08:17:05;;;;;;;5.10;1.90;;;;;;;36.30;21.81;101757.28;107149;1282;73221;-85
2023/06/06 08:19:31;;;;;;;5.00;1.90;;;;;;;35.85;21.92;101752.88;107053;1282;61236;-86
2023/06/06 08:21:56;;;;;;;2.90;2.10;;;;;;;35.25;22.05;101750.67;106969;1283;59071;-87
2023/06/06 08:24:22;;;;;;;5.90;1.90;;;;;;;34.90;22.16;101750.65;107063;1282;59116;-85
2023/06/06 08:26:48;;;;;;;2.30;1.80;;;;;;;34.20;22.59;101752.81;107180;1282;59058;-86
2023/06/06 08:29:14;;;;;;;3.00;2.00;;;;;;;34.49;23.49;101747.22;107139;1282;59105;-86
2023/06/06 08:31:40;;;;;;;7.40;2.00;;;;;;;35.14;23.38;101744.36;106780;1283;59150;-87
2023/06/06 08:34:06;;;;;;;4.30;1.70;;;;;;;35.18;22.58;101743.08;107412;1279;59104;-90
2023/06/06 08:36:32;;;;;;;4.70;2.00;;;;;;;35.26;22.97;101737.14;107031;1279;622470;-84
2023/06/06 08:38:58;;;;;;;5.50;2.30;;;;;;;36.15;23.68;101738.00;107457;1279;59167;-83
2023/06/06 08:41:26;;;;;;;3.90;2.10;;;;;;;36.52;22.23;101741.98;107468;1279;59041;-85
2023/06/06 08:43:53;;;;;;;4.80;2.00;;;;;;;36.61;22.34;101734.53;107497;1279;59917;-84
2023/06/06 08:46:19;;;;;;;4.50;2.30;;;;;;;37.06;21.57;101730.28;107549;1279;75905;-85
2023/06/06 08:48:48;;;;;;;13.90;2.50;;;;;;;37.22;21.94;101732.78;107489;1279;58960;-83
2023/06/06 08:51:14;;;;;;;7.90;2.10;;;;;;;37.03;21.98;101730.30;107323;1279;73625;-84
2023/06/06 08:53:43;;;;;;;3.40;2.00;;;;;;;37.18;21.93;101729.21;107469;1279;59036;-83
2023/06/06 08:56:10;;;;;;;4.00;1.80;;;;;;;37.26;21.67;101736.60;107490;1279;60150;-84
2023/06/06 08:58:36;;;;;;;5.20;2.00;;;;;;;36.99;21.83;101731.44;107225;1279;75693;-84
2023/06/06 09:01:02;;;;;;;8.40;2.30;;;;;;;37.17;21.86;101729.85;106863;1284;59184;-86
2023/06/06 09:03:31;;;;;;;6.30;2.00;;;;;;;37.67;22.32;101729.74;106946;1284;59480;-85
2023/06/06 09:06:00;;;;;;;2.90;2.00;;;;;;;37.56;21.51;101724.73;106885;1284;61343;-84
2023/06/06 09:08:26;;;;;;;2.80;1.90;;;;;;;37.52;21.80;101720.05;106936;1285;60759;-84
2023/06/06 09:10:52;;;;;;;2.10;1.40;;;;;;;37.66;21.74;101715.94;106944;1284;59449;-83
2023/06/06 09:13:18;;;;;;;5.00;1.80;;;;;;;37.98;22.00;101707.10;106793;1283;59198;-85
2023/06/06 09:15:46;;;;;;;5.10;2.20;;;;;;;38.15;21.26;101706.64;106944;1284;59136;-85
2023/06/06 09:18:14;;;;;;;3.70;1.50;;;;;;;37.65;21.25;101705.80;106591;1283;59021;-84
2023/06/06 09:20:40;;;;;;;2.90;1.60;;;;;;;37.09;21.73;101707.20;106910;1283;61117;-84
2023/06/06 09:23:12;;;;;;;3.80;1.50;;;;;;;36.21;21.90;101704.52;106620;1285;59174;-84
2023/06/06 09:25:44;;;;;;;3.40;1.70;;;;;;;35.41;22.18;101702.43;106716;1285;73193;-84
2023/06/06 09:28:10;;;;;;;4.80;1.70;;;;;;;35.01;22.80;101696.79;106921;1284;73690;-84
2023/06/06 09:30:35;;;;;;;2.70;1.60;;;;;;;35.48;22.87;101696.73;106930;1284;59528;-84
2023/06/06 09:33:37;;;;;;;;;;;;;;;;;;;;;
2023/06/06 09:36:04;;;;;;;4.80;1.40;;;;;;;35.29;23.23;101686.34;106271;1285;75384;-84
2023/06/06 09:42:14;;;;;;;2.40;1.60;;;;;;;32.54;23.96;101694.05;102911;1292;601132;-83
2023/06/06 09:45:00;;;;;;;3.80;1.30;;;;;;;31.46;24.94;101687.72;103565;1283;600856;-84
2023/06/06 09:47:25;;;;;;;6.70;1.60;;;;;;;31.02;25.64;101684.43;103808;1286;60421;-84
2023/06/06 09:49:55;;;;;;;2.60;1.70;;;;;;;30.85;25.83;101686.38;103761;1287;60527;-84
2023/06/06 09:52:21;;;;;;;3.00;1.60;;;;;;;31.03;25.99;101683.48;103771;1287;72201;-84
2023/06/06 09:54:46;;;;;;;10.80;1.70;;;;;;;31.03;26.39;101686.34;103747;1283;60405;-84
